TRA6705 EHAM-GCFV
Flight info
| Callsign | TRA6705 |
|---|---|
| Flight time | N/A |
| Altitude | 37000 |
| Route | WOODY N872 CIV DCT KOVIN DCT NIDUV DCT KIHVI DCT PON DCT DITAL DCT GODIX DCT DIDAK DCT KURIS DCT TERPO DCT ERIGA DCT FUJTI DCT BAKUP DCT BATAX DCT TAKAV DCT VEDOD UN857 TERTO |
| Aircraft | B738/M-SDE2E3FGHIJ1RWXYZ/LB1 |
Departure
| Time | 2026-05-05 12:23 |
|---|---|
| Airport | Amsterdam Airport Schiphol (EHAM) |
Arrival
| Time | N/A |
|---|---|
| Airport | Fuerteventura Airport (GCFV) |
| Time | Latitude | Longitude | Altitude | Speed | Heading |
|---|---|---|---|---|---|
| 2026-05-05 11:22 | 52.30569 | 4.76481 | -2 ft | 0 kts | 58° |
| 2026-05-05 12:09 | 52.30569 | 4.76480 | -2 ft | 2 kts | 58° |
| 2026-05-05 12:10 | 52.30556 | 4.76458 | -2 ft | 2 kts | 59° |
| 2026-05-05 12:10 | 52.30546 | 4.76425 | -2 ft | 4 kts | 78° |
| 2026-05-05 12:10 | 52.30547 | 4.76384 | -2 ft | 4 kts | 110° |
| 2026-05-05 12:10 | 52.30549 | 4.76377 | -2 ft | 1 kts | 112° |
| 2026-05-05 12:13 | 52.30546 | 4.76387 | -2 ft | 2 kts | 118° |
| 2026-05-05 12:14 | 52.30524 | 4.76418 | -2 ft | 6 kts | 146° |
| 2026-05-05 12:14 | 52.30477 | 4.76467 | -2 ft | 10 kts | 148° |
| 2026-05-05 12:14 | 52.30438 | 4.76507 | -2 ft | 0 kts | 148° |
| 2026-05-05 12:15 | 52.30434 | 4.76511 | -2 ft | 2 kts | 148° |
| 2026-05-05 12:15 | 52.30410 | 4.76536 | -2 ft | 7 kts | 148° |
| 2026-05-05 12:15 | 52.30350 | 4.76584 | -2 ft | 12 kts | 176° |
| 2026-05-05 12:15 | 52.30279 | 4.76480 | -2 ft | 17 kts | 237° |
| 2026-05-05 12:16 | 52.30207 | 4.76293 | -2 ft | 22 kts | 238° |
| 2026-05-05 12:16 | 52.30118 | 4.76060 | -2 ft | 26 kts | 238° |
| 2026-05-05 12:16 | 52.30015 | 4.75791 | -2 ft | 29 kts | 238° |
| 2026-05-05 12:16 | 52.29902 | 4.75497 | -2 ft | 32 kts | 238° |
| 2026-05-05 12:17 | 52.29831 | 4.75275 | -2 ft | 21 kts | 265° |
| 2026-05-05 12:17 | 52.29909 | 4.75069 | -2 ft | 23 kts | 311° |
| 2026-05-05 12:17 | 52.30020 | 4.74864 | -2 ft | 25 kts | 311° |
| 2026-05-05 12:17 | 52.30134 | 4.74654 | 10 ft | 24 kts | 311° |
| 2026-05-05 12:18 | 52.30242 | 4.74453 | 9 ft | 20 kts | 311° |
| 2026-05-05 12:18 | 52.30346 | 4.74256 | -2 ft | 26 kts | 311° |
| 2026-05-05 12:18 | 52.30420 | 4.74082 | -2 ft | 14 kts | 271° |
| 2026-05-05 12:18 | 52.30409 | 4.74005 | -2 ft | 0 kts | 264° |
| 2026-05-05 12:19 | 52.30409 | 4.74004 | -2 ft | 0 kts | 264° |
| 2026-05-05 12:19 | 52.30408 | 4.73988 | -2 ft | 3 kts | 264° |
| 2026-05-05 12:19 | 52.30407 | 4.73929 | -2 ft | 8 kts | 271° |
| 2026-05-05 12:19 | 52.30410 | 4.73818 | -4 ft | 9 kts | 273° |
| 2026-05-05 12:20 | 52.30460 | 4.73762 | -4 ft | 10 kts | 2° |
| 2026-05-05 12:20 | 52.30465 | 4.73762 | -4 ft | 0 kts | 3° |
| 2026-05-05 12:22 | 52.30466 | 4.73762 | -4 ft | 2 kts | 3° |
| 2026-05-05 12:22 | 52.30653 | 4.73780 | -4 ft | 61 kts | 3° |
| 2026-05-05 12:22 | 52.31300 | 4.73838 | -3 ft | 124 kts | 3° |
| 2026-05-05 12:23 | 52.32324 | 4.73972 | 144 ft | 161 kts | 9° |
| 2026-05-05 12:23 | 52.33452 | 4.74103 | 858 ft | 165 kts | 5° |
| 2026-05-05 12:23 | 52.34563 | 4.74478 | 1709 ft | 163 kts | 25° |
| 2026-05-05 12:23 | 52.35659 | 4.75284 | 2142 ft | 188 kts | 25° |
| 2026-05-05 12:24 | 52.36825 | 4.76474 | 2417 ft | 207 kts | 47° |
| 2026-05-05 12:24 | 52.37442 | 4.78636 | 2922 ft | 219 kts | 84° |
| 2026-05-05 12:24 | 52.37288 | 4.81138 | 3598 ft | 226 kts | 101° |
| 2026-05-05 12:24 | 52.36582 | 4.83432 | 4332 ft | 232 kts | 132° |
| 2026-05-05 12:25 | 52.35191 | 4.84845 | 4836 ft | 249 kts | 164° |
| 2026-05-05 12:25 | 52.33391 | 4.85049 | 5224 ft | 268 kts | 181° |
| 2026-05-05 12:25 | 52.31514 | 4.84962 | 5986 ft | 271 kts | 181° |
| 2026-05-05 12:25 | 52.29633 | 4.84894 | 6817 ft | 270 kts | 181° |
| 2026-05-05 12:26 | 52.27740 | 4.84841 | 7536 ft | 275 kts | 181° |
| 2026-05-05 12:26 | 52.25809 | 4.84795 | 8223 ft | 280 kts | 181° |
| 2026-05-05 12:26 | 52.23851 | 4.84752 | 8935 ft | 283 kts | 181° |
| 2026-05-05 12:26 | 52.21864 | 4.84710 | 9656 ft | 287 kts | 181° |
| 2026-05-05 12:27 | 52.19851 | 4.84667 | 10275 ft | 295 kts | 181° |
| 2026-05-05 12:27 | 52.17723 | 4.84622 | 10437 ft | 317 kts | 181° |
| 2026-05-05 12:27 | 52.15556 | 4.84577 | 10607 ft | 337 kts | 181° |
| 2026-05-05 12:27 | 52.13141 | 4.84527 | 10866 ft | 354 kts | 181° |
| 2026-05-05 12:28 | 52.10656 | 4.84477 | 11406 ft | 361 kts | 181° |
| 2026-05-05 12:28 | 52.08133 | 4.84425 | 12086 ft | 363 kts | 181° |
| 2026-05-05 12:28 | 52.05591 | 4.84373 | 12745 ft | 367 kts | 181° |
| 2026-05-05 12:28 | 52.03025 | 4.84285 | 13358 ft | 371 kts | 185° |
| 2026-05-05 12:29 | 52.00521 | 4.83254 | 13911 ft | 376 kts | 205° |
| 2026-05-05 12:29 | 51.98182 | 4.81358 | 14583 ft | 376 kts | 207° |
| 2026-05-05 12:29 | 51.95840 | 4.79447 | 15230 ft | 377 kts | 206° |
| 2026-05-05 12:29 | 51.93479 | 4.77567 | 15870 ft | 379 kts | 206° |
| 2026-05-05 12:30 | 51.91160 | 4.75744 | 16462 ft | 381 kts | 205° |
| 2026-05-05 12:30 | 51.88771 | 4.73875 | 17070 ft | 383 kts | 205° |
| 2026-05-05 12:30 | 51.86366 | 4.71996 | 17691 ft | 385 kts | 205° |
| 2026-05-05 12:30 | 51.83952 | 4.70113 | 18277 ft | 387 kts | 205° |
| 2026-05-05 12:31 | 51.81520 | 4.68215 | 18794 ft | 389 kts | 205° |
| 2026-05-05 12:31 | 51.79079 | 4.66313 | 19290 ft | 391 kts | 205° |
| 2026-05-05 12:31 | 51.76618 | 4.64397 | 19783 ft | 394 kts | 205° |
| 2026-05-05 12:31 | 51.74137 | 4.62467 | 20260 ft | 397 kts | 205° |
| 2026-05-05 12:32 | 51.71645 | 4.60531 | 20739 ft | 399 kts | 205° |
| 2026-05-05 12:32 | 51.69130 | 4.58579 | 21197 ft | 402 kts | 205° |
| 2026-05-05 12:32 | 51.66600 | 4.56618 | 21646 ft | 405 kts | 205° |